createdAt,value
2023-01-18T05:48:11.590Z,3.50
2023-01-18T05:50:46.121Z,6.65
2023-01-18T05:53:20.649Z,10.57
2023-01-18T05:56:01.584Z,7.22
2023-01-18T05:58:34.328Z,6.68
2023-01-18T06:01:08.790Z,4.78
2023-01-18T06:03:41.732Z,6.07
2023-01-18T06:06:16.531Z,9.85
2023-01-18T06:08:49.136Z,6.53
2023-01-18T06:11:21.229Z,7.15
2023-01-18T06:13:54.055Z,16.27
2023-01-18T06:16:26.873Z,12.95
2023-01-18T06:18:58.957Z,8.73
2023-01-18T06:21:31.032Z,7.50
2023-01-18T06:24:03.120Z,14.18
2023-01-18T06:26:35.462Z,19.55
2023-01-18T06:29:07.741Z,17.38
2023-01-18T06:31:39.916Z,18.48
2023-01-18T06:34:12.253Z,13.45
2023-01-18T06:38:59.659Z,16.70
2023-01-18T06:41:32.104Z,25.08
2023-01-18T06:44:04.287Z,21.63
2023-01-18T06:46:36.637Z,18.23
2023-01-18T06:49:08.709Z,28.13
2023-01-18T06:51:41.233Z,36.05
2023-01-18T06:54:15.620Z,41.47
2023-01-18T06:56:48.388Z,33.13
2023-01-18T06:59:20.530Z,14.20
2023-01-18T07:01:54.792Z,4.57
2023-01-18T07:04:27.253Z,8.52
2023-01-18T07:07:05.292Z,3.42
2023-01-18T07:09:37.539Z,5.65
2023-01-18T07:12:15.408Z,11.70
2023-01-18T07:14:47.627Z,5.97
2023-01-18T07:17:20.071Z,6.57
2023-01-18T07:19:52.468Z,7.25
2023-01-18T15:53:56.594Z,15.90
2023-01-18T15:56:30.900Z,15.57
2023-01-18T15:59:09.939Z,15.07
2023-01-18T16:01:44.463Z,14.27
2023-01-18T16:04:22.836Z,14.27
2023-01-18T16:06:56.121Z,13.02
2023-01-18T16:09:28.293Z,9.97
2023-01-18T16:12:01.169Z,8.60
2023-01-18T16:14:35.298Z,12.40
2023-01-18T16:17:20.094Z,14.80
2023-01-18T16:19:59.692Z,9.48
2023-01-18T16:22:36.406Z,13.85
2023-01-18T16:25:10.195Z,13.15
2023-01-18T16:27:54.251Z,17.58
2023-01-18T16:30:39.338Z,14.02
2023-01-18T16:33:18.034Z,12.60
2023-01-18T16:35:50.339Z,13.15
2023-01-18T16:38:22.687Z,13.00
2023-01-18T16:40:55.430Z,13.27
2023-01-18T16:43:29.580Z,11.57
2023-01-18T16:46:04.529Z,12.43
2023-01-18T16:48:37.537Z,14.38
2023-01-18T16:51:16.197Z,15.68
2023-01-18T16:53:49.583Z,10.25
2023-01-18T16:56:22.228Z,14.77
2023-01-18T16:58:54.234Z,11.65
2023-01-18T17:01:26.865Z,11.77
2023-01-18T17:03:59.538Z,12.57
2023-01-18T17:06:33.405Z,9.82
2023-01-18T17:09:40.339Z,10.88
2023-01-18T17:12:16.086Z,13.32
2023-01-18T17:14:48.743Z,11.30
2023-01-18T17:17:21.242Z,13.83
2023-01-18T17:19:53.955Z,16.50
2023-01-18T17:22:26.252Z,17.77
2023-01-18T17:24:58.314Z,17.33
2023-01-18T17:27:30.650Z,13.20
2023-01-18T17:30:03.562Z,11.18
2023-01-18T17:32:35.910Z,12.67
2023-01-18T17:35:09.294Z,12.02
2023-01-18T17:37:41.460Z,14.20
2023-01-18T17:42:57.183Z,14.73
2023-01-18T17:45:29.611Z,14.00
2023-01-18T17:48:01.607Z,13.07
2023-01-18T17:50:34.090Z,12.25
2023-01-18T17:53:06.998Z,14.32
2023-01-18T17:55:40.677Z,16.35
2023-01-18T17:58:12.907Z,12.90
2023-01-18T18:00:45.526Z,12.52
2023-01-18T18:03:17.740Z,15.50
2023-01-18T18:05:50.691Z,9.77
2023-01-18T18:08:23.062Z,14.50
2023-01-18T18:10:55.511Z,10.57
2023-01-18T18:13:28.626Z,11.98
2023-01-18T18:16:00.754Z,14.73
2023-01-18T18:18:32.846Z,13.77
2023-01-18T18:21:07.225Z,10.93
2023-01-18T18:23:39.389Z,10.15
2023-01-18T18:26:11.459Z,10.73
2023-01-18T18:28:43.778Z,10.50
2023-01-18T18:31:16.454Z,12.05
2023-01-18T18:33:48.939Z,14.13
2023-01-18T18:36:22.327Z,10.70
2023-01-18T18:38:54.668Z,10.50
2023-01-18T18:41:27.680Z,11.32
2023-01-18T18:43:59.750Z,13.17
2023-01-18T18:46:32.404Z,10.63
2023-01-18T18:49:04.859Z,12.17
2023-01-18T18:51:37.544Z,15.15
2023-01-18T18:54:12.735Z,21.60
2023-01-18T18:56:45.325Z,14.57
2023-01-18T18:59:18.341Z,15.95
2023-01-18T19:01:51.981Z,14.63
2023-01-18T19:04:25.093Z,18.38
2023-01-18T19:06:57.373Z,13.38
2023-01-18T19:09:29.623Z,14.30
2023-01-18T19:12:02.059Z,13.30
2023-01-18T19:14:35.469Z,14.60
2023-01-18T19:17:11.651Z,13.20
2023-01-18T19:19:46.064Z,12.75
2023-01-18T19:22:21.321Z,14.63
2023-01-18T19:24:55.205Z,17.30
2023-01-18T19:27:30.868Z,16.80
2023-01-18T19:30:10.696Z,15.40
2023-01-18T19:32:42.753Z,16.20
2023-01-18T19:35:15.449Z,20.77
2023-01-18T19:37:48.997Z,20.13
2023-01-18T19:40:21.762Z,18.25
2023-01-18T19:42:54.707Z,18.00
2023-01-18T19:45:28.945Z,20.17
2023-01-18T19:48:01.929Z,22.55
2023-01-18T19:50:36.057Z,19.20
2023-01-18T19:53:10.595Z,20.38
2023-01-18T19:55:45.164Z,16.98
2023-01-18T19:58:20.694Z,17.67
2023-01-18T20:00:56.143Z,18.77
2023-01-18T20:03:30.370Z,16.80
2023-01-18T20:06:16.848Z,21.40
2023-01-18T20:08:51.944Z,19.70
2023-01-18T20:11:25.540Z,20.92
2023-01-18T20:16:31.102Z,18.42
2023-01-18T20:19:03.828Z,30.45
2023-01-18T20:24:09.476Z,46.90
2023-01-18T20:26:42.189Z,33.47
2023-01-18T20:29:14.650Z,25.52
2023-01-18T20:31:50.298Z,23.58
2023-01-18T20:34:22.578Z,23.42
2023-01-18T20:36:54.758Z,33.28
2023-01-18T20:39:29.123Z,21.73
2023-01-18T20:42:02.035Z,23.33
2023-01-18T20:44:34.521Z,23.50
2023-01-18T20:47:07.221Z,19.48
2023-01-18T20:49:41.384Z,24.33
2023-01-18T20:52:14.509Z,28.30
2023-01-18T20:54:46.705Z,41.78
2023-01-18T20:57:19.248Z,28.35
2023-01-18T20:59:51.385Z,24.55
2023-01-18T21:02:25.588Z,25.20
2023-01-18T21:04:57.758Z,34.20
